JFK weather

John F Kennedy International Airport
New York, New York, United States

Public forecast

Using degrees Fahrenheit for public forecast. Weather courtesy of forecast.io.

METAR (pilot weather report)

Retrieved 2017/05/23 19:51 UTC (20 minutes ago):

KJFK 231951Z 19005KT 10SM BKN140 OVC250 19/11 A2988 RMK AO2 SLP117 T01890106

TAF (pilot weather forecast)

Retrieved 2017/05/23 18:39 UTC (2 hours ago):

TAF KJFK 231731Z 2318/2424 VRB03KT P6SM BKN150 FM231900 18008KT P6SM BKN150 FM240300 VRB04KT P6SM BKN120 FM240700 03008KT 5SM -RA BKN040 OVC100 FM241200 05010G17KT 5SM -RA OVC025 FM241500 02009KT P6SM -SHRA BKN040 OVC100 FM241800 36010KT P6SM OVC050